Time;durP1;ratioP1;P1;durP2;ratioP2;P2;SDS_P1;SDS_P2;PMS_P1;PMS_P2;Temp;Humidity;BMP_temperature;BMP_pressure;BME280_temperature;BME280_humidity;BME280_pressure;Samples;Min_cycle;Max_cycle;Signal;HPM_P1;HPM_P2
2022/08/30 00:05:28;;;;;;;5.42;3.00;;;;;;;19.48;85.47;100903.89;3367432;86;34899;-81
2022/08/30 00:10:29;;;;;;;7.10;3.42;;;;;;;19.46;85.71;100906.33;3398259;85;98315;-80
2022/08/30 00:15:30;;;;;;;5.28;2.77;;;;;;;19.46;86.16;100903.53;3409362;85;33845;-81
2022/08/30 00:20:34;;;;;;;4.65;2.98;;;;;;;19.44;85.94;100907.34;3414219;84;98786;-80
2022/08/30 00:25:36;;;;;;;6.60;3.10;;;;;;;19.45;85.90;100906.16;3411553;85;34857;-80
2022/08/30 00:30:38;;;;;;;5.83;3.45;;;;;;;19.46;85.96;100921.69;3411658;85;98789;-80
2022/08/30 00:35:40;;;;;;;5.92;3.33;;;;;;;19.43;86.36;100911.35;3406905;85;35036;-80
2022/08/30 00:40:44;;;;;;;4.83;2.72;;;;;;;19.43;86.10;100914.14;3407558;85;98537;-80
2022/08/30 00:45:46;;;;;;;7.17;2.90;;;;;;;19.39;86.15;100912.81;3414949;84;35390;-81
2022/08/30 00:50:55;;;;;;;5.75;2.77;;;;;;;19.38;86.24;100909.84;3406741;84;98651;-80
2022/08/30 00:55:58;;;;;;;6.85;3.08;;;;;;;19.34;86.23;100907.71;3411570;84;35387;-80
2022/08/30 01:01:00;;;;;;;4.35;2.90;;;;;;;19.34;86.24;100911.90;3416820;84;42408;-80
2022/08/30 01:06:06;;;;;;;4.92;2.62;;;;;;;19.34;86.21;100907.71;3390086;83;99035;-80
2022/08/30 01:11:08;;;;;;;5.35;3.25;;;;;;;19.33;86.02;100906.14;3442835;84;25986;-81
2022/08/30 01:16:09;;;;;;;4.67;2.87;;;;;;;19.31;86.12;100900.20;3425336;84;98557;-80
2022/08/30 01:21:34;;;;;;;5.85;3.10;;;;;;;19.28;86.16;100908.61;3438469;84;35075;-80
2022/08/30 01:26:36;;;;;;;6.03;3.40;;;;;;;19.26;86.25;100901.28;3432357;84;99049;-81
2022/08/30 01:31:37;;;;;;;6.00;3.55;;;;;;;19.24;86.21;100907.91;3439168;84;34838;-81
2022/08/30 01:36:41;;;;;;;4.60;3.00;;;;;;;19.18;86.21;100899.80;3445055;84;98493;-80
2022/08/30 01:41:43;;;;;;;4.90;2.60;;;;;;;19.12;86.35;100905.06;3509489;81;34844;-80
2022/08/30 01:46:46;;;;;;;5.72;2.92;;;;;;;19.10;86.47;100907.50;3496312;82;98909;-80
2022/08/30 01:51:47;;;;;;;6.20;2.77;;;;;;;19.07;86.55;100901.36;3508056;83;48104;-80
2022/08/30 01:56:49;;;;;;;5.53;2.92;;;;;;;19.07;86.53;100906.16;3494305;82;98931;-80
2022/08/30 02:01:50;;;;;;;5.03;2.65;;;;;;;19.04;86.51;100895.84;3503222;83;33728;-80
2022/08/30 02:06:52;;;;;;;4.85;2.95;;;;;;;18.94;86.69;100885.03;3503385;82;98551;-80
2022/08/30 02:11:53;;;;;;;5.58;2.60;;;;;;;19.00;86.87;100894.50;3480245;82;34995;-80
2022/08/30 02:16:55;;;;;;;4.60;2.37;;;;;;;19.00;86.93;100894.50;3451304;83;98517;-80
2022/08/30 02:21:56;;;;;;;3.60;2.33;;;;;;;18.98;86.75;100898.33;3473187;83;30131;-81
2022/08/30 02:26:57;;;;;;;3.97;2.20;;;;;;;18.95;86.74;100899.75;3466633;83;98893;-80
2022/08/30 02:31:58;;;;;;;4.67;2.60;;;;;;;18.92;86.80;100904.17;3465531;84;35724;-80
2022/08/30 02:36:59;;;;;;;3.92;2.20;;;;;;;18.90;86.96;100905.21;3464411;83;98415;-80
2022/08/30 02:42:01;;;;;;;5.10;2.23;;;;;;;18.90;87.11;100903.81;3473773;82;30680;-80
2022/08/30 02:47:03;;;;;;;4.90;2.08;;;;;;;18.87;86.99;100903.88;3463681;83;98779;-81
2022/08/30 02:52:05;;;;;;;3.33;1.90;;;;;;;18.83;87.06;100907.31;3482192;83;33560;-80
2022/08/30 02:57:07;;;;;;;4.70;2.08;;;;;;;18.82;87.29;100900.16;3466349;83;98891;-80
2022/08/30 03:02:10;;;;;;;3.72;2.02;;;;;;;18.76;87.37;100911.02;3472535;83;34825;-80
2022/08/30 03:07:12;;;;;;;2.72;1.60;;;;;;;18.76;87.56;100911.61;3471303;83;98471;-80
2022/08/30 03:12:13;;;;;;;3.80;2.05;;;;;;;18.71;87.46;100919.86;3479803;83;34892;-80
2022/08/30 03:17:15;;;;;;;4.45;2.20;;;;;;;18.69;87.81;100914.51;3484081;82;98627;-80
2022/08/30 03:22:17;;;;;;;5.72;2.27;;;;;;;18.64;87.73;100927.52;3424574;84;34799;-80
2022/08/30 03:27:18;;;;;;;5.37;3.05;;;;;;;18.60;87.97;100926.77;3487900;83;98474;-80
2022/08/30 03:32:20;;;;;;;5.67;2.58;;;;;;;18.58;88.21;100922.23;3488868;83;33728;-81
2022/08/30 03:37:21;;;;;;;3.95;2.50;;;;;;;18.56;88.25;100924.04;3478503;82;98566;-81
2022/08/30 03:42:23;;;;;;;4.50;2.25;;;;;;;18.53;88.22;100926.88;3483816;82;33029;-79
2022/08/30 03:47:24;;;;;;;6.20;2.58;;;;;;;18.48;88.25;100932.91;3480960;82;98850;-80
2022/08/30 03:52:26;;;;;;;4.70;2.83;;;;;;;18.47;88.67;100937.69;3476109;83;33382;-80
2022/08/30 03:57:28;;;;;;;6.83;3.20;;;;;;;18.46;88.77;100940.30;3413307;84;98395;-81
2022/08/30 04:02:29;;;;;;;6.08;2.55;;;;;;;18.45;88.82;100946.28;3423779;84;35144;-81
2022/08/30 04:07:30;;;;;;;6.72;3.33;;;;;;;18.39;88.84;100946.56;3407741;85;98758;-81
2022/08/30 04:12:31;;;;;;;5.92;2.90;;;;;;;18.33;88.88;100947.64;3439661;84;72257;-80
2022/08/30 04:17:32;;;;;;;5.53;2.87;;;;;;;18.28;88.87;100944.47;3435381;84;98595;-80
2022/08/30 04:22:33;;;;;;;9.03;3.22;;;;;;;18.19;88.89;100946.37;3390214;86;34166;-80
2022/08/30 04:27:34;;;;;;;6.10;2.95;;;;;;;18.14;89.10;100952.39;3425993;85;98554;-80
2022/08/30 04:32:37;;;;;;;8.06;3.18;;;;;;;18.09;89.24;100960.44;3441017;84;34018;-81
2022/08/30 04:37:39;;;;;;;6.53;2.90;;;;;;;18.03;89.27;100962.09;3423649;84;98723;-82
2022/08/30 04:42:41;;;;;;;4.20;2.58;;;;;;;17.96;89.33;100974.68;3429222;84;34330;-82
2022/08/30 04:47:43;;;;;;;4.85;2.70;;;;;;;17.92;89.66;100978.12;3424030;84;98939;-81
2022/08/30 04:52:44;;;;;;;6.40;3.20;;;;;;;17.87;89.74;100983.52;3431320;84;40644;-82
2022/08/30 04:57:45;;;;;;;7.12;2.75;;;;;;;17.84;89.93;100980.78;3403982;84;98361;-81
2022/08/30 05:02:46;;;;;;;4.00;2.22;;;;;;;17.81;90.11;100984.37;3428705;83;46984;-81
2022/08/30 05:07:48;;;;;;;6.33;2.47;;;;;;;17.80;90.16;100985.58;3429965;84;98616;-81
2022/08/30 05:12:49;;;;;;;5.13;2.70;;;;;;;17.80;90.29;100995.33;3419577;84;35362;-80
2022/08/30 05:17:50;;;;;;;4.92;2.45;;;;;;;17.81;90.48;100999.69;3412571;84;98838;-80
2022/08/30 05:22:51;;;;;;;5.67;2.93;;;;;;;17.82;90.49;100998.51;3429876;84;34643;-81
2022/08/30 05:27:55;;;;;;;8.18;2.87;;;;;;;17.84;90.56;101001.07;3418588;83;98690;-80
2022/08/30 05:32:56;;;;;;;5.83;2.77;;;;;;;17.84;90.35;100997.48;3424767;84;35813;-80
2022/08/30 05:37:57;;;;;;;5.60;2.90;;;;;;;17.86;90.54;101001.44;3415111;84;98850;-80
2022/08/30 05:42:59;;;;;;;7.23;3.13;;;;;;;17.88;90.46;101001.03;3427139;84;32608;-80
2022/08/30 05:48:00;;;;;;;6.95;2.95;;;;;;;17.92;90.66;100999.78;3415338;84;99305;-80
2022/08/30 05:53:01;;;;;;;5.47;2.30;;;;;;;18.07;91.01;101001.83;3426733;83;33712;-80
2022/08/30 05:58:02;;;;;;;4.72;2.10;;;;;;;18.20;90.89;100997.33;3391311;84;98482;-80
2022/08/30 06:03:03;;;;;;;5.60;2.52;;;;;;;18.17;90.42;100978.05;3419765;84;32692;-80
2022/08/30 06:08:05;;;;;;;4.15;1.98;;;;;;;18.36;90.20;100999.74;3420559;84;99146;-80
2022/08/30 06:13:06;;;;;;;3.77;1.70;;;;;;;18.40;89.96;100992.73;3432502;84;32543;-81
2022/08/30 06:18:07;;;;;;;3.17;1.55;;;;;;;18.44;89.68;100995.68;3427719;83;98740;-80
2022/08/30 06:23:09;;;;;;;3.98;1.60;;;;;;;18.45;89.47;100997.84;3485656;83;31187;-80
2022/08/30 06:28:11;;;;;;;4.37;2.00;;;;;;;18.46;89.27;100996.05;3479275;83;98501;-81
2022/08/30 06:33:13;;;;;;;4.65;2.08;;;;;;;18.50;89.29;100999.59;3490552;82;34839;-80
2022/08/30 06:38:14;;;;;;;3.00;1.52;;;;;;;18.60;89.56;100997.28;3477659;83;98480;-80
2022/08/30 06:43:15;;;;;;;3.78;1.44;;;;;;;18.80;89.87;101010.73;3481013;83;34429;-80
2022/08/30 06:48:16;;;;;;;6.80;1.75;;;;;;;18.91;89.35;101011.39;3466032;83;98930;-80
2022/08/30 06:53:17;;;;;;;2.92;1.20;;;;;;;19.09;89.22;101012.55;3475134;84;33545;-80
2022/08/30 06:58:18;;;;;;;2.83;1.30;;;;;;;19.30;88.74;101009.48;3461952;83;99079;-80
2022/08/30 07:03:19;;;;;;;5.62;1.77;;;;;;;19.53;88.44;101015.09;3470157;82;33920;-80
2022/08/30 07:08:21;;;;;;;2.30;1.00;;;;;;;19.82;88.20;101009.20;3478247;82;98830;-80
2022/08/30 07:13:23;;;;;;;1.57;0.93;;;;;;;20.10;87.24;101019.30;3471987;82;33504;-80
2022/08/30 07:23:47;;;;;;;3.67;1.10;;;;;;;20.55;85.33;101025.23;3465138;82;35396;-80
2022/08/30 07:28:49;;;;;;;5.85;1.15;;;;;;;20.76;84.17;101035.38;3455810;82;98754;-80
2022/08/30 07:33:51;;;;;;;3.05;1.30;;;;;;;20.95;83.70;101040.20;3466587;82;34883;-79
2022/08/30 07:38:53;;;;;;;2.83;0.80;;;;;;;21.13;82.89;101047.59;3462536;82;98615;-80
2022/08/30 07:43:55;;;;;;;3.62;1.35;;;;;;;21.30;82.19;101045.63;3470953;82;35499;-80
2022/08/30 07:48:59;;;;;;;4.92;1.10;;;;;;;21.48;81.64;101043.20;3459874;82;98613;-79
2022/08/30 07:54:00;;;;;;;2.05;1.00;;;;;;;21.60;80.28;101053.71;3465362;82;25925;-79
2022/08/30 07:59:01;;;;;;;2.15;0.80;;;;;;;21.63;79.57;101055.65;3459204;82;99385;-79
2022/08/30 08:04:03;;;;;;;2.92;0.70;;;;;;;21.70;79.23;101061.10;3466259;83;35042;-80
2022/08/30 08:09:04;;;;;;;2.70;0.93;;;;;;;21.86;78.65;101070.28;3457407;82;98480;-79
2022/08/30 08:14:05;;;;;;;3.35;1.00;;;;;;;22.01;78.27;101067.94;3489129;81;34799;-80
2022/08/30 08:19:07;;;;;;;2.35;0.85;;;;;;;22.24;78.01;101076.91;3487636;83;98616;-80
2022/08/30 08:24:08;;;;;;;3.92;0.93;;;;;;;22.46;77.63;101075.78;3486852;82;34868;-80
2022/08/30 08:29:10;;;;;;;3.12;1.10;;;;;;;22.75;77.11;101078.76;3483057;82;98745;-80
2022/08/30 08:34:11;;;;;;;4.45;1.20;;;;;;;22.96;76.10;101092.19;3503575;82;78472;-80
2022/08/30 08:39:12;;;;;;;3.30;0.90;;;;;;;23.18;75.50;101088.95;3476659;82;98887;-79
2022/08/30 08:44:55;;;;;;;2.45;0.70;;;;;;;23.43;74.94;101099.44;3492463;82;34935;-79
2022/08/30 08:50:01;;;;;;;2.98;0.90;;;;;;;23.66;74.13;101107.53;3504056;82;98755;-80
2022/08/30 08:55:08;;;;;;;3.02;0.93;;;;;;;23.93;73.54;101108.66;3490309;82;40094;-80
2022/08/30 09:00:12;;;;;;;3.67;0.70;;;;;;;24.17;72.51;101112.69;3483112;82;98298;-79
2022/08/30 09:05:21;;;;;;;3.08;0.82;;;;;;;24.30;71.95;101122.51;3498179;82;34795;-80
2022/08/30 09:10:24;;;;;;;3.00;0.78;;;;;;;24.32;70.31;101118.00;3495341;83;99006;-80
2022/08/30 09:15:31;;;;;;;2.85;0.88;;;;;;;24.45;70.46;101113.72;3463195;82;49038;-80
2022/08/30 09:20:42;;;;;;;3.33;0.85;;;;;;;24.64;69.16;101109.23;3457238;83;98320;-80
2022/08/30 09:26:03;;;;;;;2.60;1.22;;;;;;;24.64;68.32;101115.50;3466333;83;34835;-80
2022/08/30 09:31:09;;;;;;;2.20;1.00;;;;;;;24.62;68.95;101124.39;3456472;82;27447;-80
2022/08/30 09:36:26;;;;;;;2.37;0.90;;;;;;;24.67;67.68;101123.02;3458916;82;98543;-80
2022/08/30 09:41:42;;;;;;;2.87;0.93;;;;;;;24.80;67.86;101117.50;3463693;82;35016;-80
2022/08/30 09:46:53;;;;;;;2.25;0.90;;;;;;;25.19;68.22;101111.23;3457972;82;98475;-79
2022/08/30 09:52:18;;;;;;;2.52;0.90;;;;;;;25.32;67.15;101113.97;3459564;82;26158;-78
2022/08/30 09:57:53;;;;;;;1.97;0.53;;;;;;;25.42;64.56;101111.37;3464793;83;99078;-78
2022/08/30 10:03:15;;;;;;;4.25;0.93;;;;;;;25.39;65.38;101108.08;3462942;82;26314;-79
2022/08/30 10:08:21;;;;;;;3.05;0.95;;;;;;;25.43;65.32;101108.09;3440476;83;98624;-79
2022/08/30 10:13:50;;;;;;;3.50;0.82;;;;;;;25.52;64.78;101108.77;3447598;83;36224;-79
2022/08/30 10:19:28;;;;;;;3.30;0.80;;;;;;;25.43;64.52;101110.12;3500006;82;98492;-79
2022/08/30 10:24:39;;;;;;;2.87;0.90;;;;;;;25.44;64.38;101099.80;3499344;82;35554;-79
2022/08/30 10:29:52;;;;;;;1.47;0.50;;;;;;;25.43;63.77;101101.66;3497010;82;98362;-79
2022/08/30 10:35:18;;;;;;;1.12;0.70;;;;;;;24.94;61.85;101099.30;3502739;82;44408;-79
2022/08/30 10:45:58;;;;;;;2.02;0.72;;;;;;;24.80;63.56;101099.20;3503764;82;26470;-79
2022/08/30 10:51:05;;;;;;;1.20;0.55;;;;;;;24.73;63.42;101103.69;3509407;81;171435;-79
2022/08/30 10:56:19;;;;;;;2.95;0.70;;;;;;;24.51;63.25;101095.81;3498636;82;98606;-79
2022/08/30 11:02:05;;;;;;;2.98;0.98;;;;;;;24.36;63.46;101105.98;3490280;82;26501;-79
2022/08/30 11:07:17;;;;;;;2.08;0.70;;;;;;;24.32;63.75;101108.16;3495702;82;98774;-79
2022/08/30 11:12:45;;;;;;;4.42;0.80;;;;;;;24.24;63.65;101108.22;3511393;82;34908;-79
2022/08/30 11:18:11;;;;;;;1.98;0.60;;;;;;;24.07;63.76;101114.43;3497003;82;98722;-78
2022/08/30 11:23:26;;;;;;;1.47;0.50;;;;;;;24.06;64.26;101108.03;3386181;83;65337;-78
2022/08/30 11:28:42;;;;;;;2.55;0.65;;;;;;;24.17;64.01;101104.25;3363921;84;98400;-79
2022/08/30 11:33:49;;;;;;;;;;;;;;;24.26;63.48;101102.14;3426294;84;25935;-78
2022/08/30 11:38:56;;;;;;;1.77;0.78;;;;;;;24.25;62.34;101107.61;3422490;84;84884;-78
2022/08/30 11:44:18;;;;;;;5.20;1.00;;;;;;;24.21;63.42;101113.36;3436190;84;35539;-79
2022/08/30 11:49:36;;;;;;;3.42;0.80;;;;;;;24.24;63.78;101115.25;3412050;84;98793;-79
2022/08/30 11:55:19;;;;;;;2.33;0.88;;;;;;;24.21;63.38;101118.19;3429903;84;36347;-78
2022/08/30 12:00:38;;;;;;;3.15;0.93;;;;;;;24.17;63.93;101121.13;3429169;84;98350;-79
2022/08/30 12:05:50;;;;;;;1.50;0.60;;;;;;;24.19;63.73;101117.23;3432205;83;34900;-79
2022/08/30 12:11:07;;;;;;;1.75;0.70;;;;;;;24.11;63.58;101117.92;3426736;84;98651;-78
2022/08/30 12:16:18;;;;;;;3.50;0.90;;;;;;;24.04;63.43;101124.56;3380915;84;108177;-79
2022/08/30 12:21:30;;;;;;;2.37;1.00;;;;;;;23.81;63.74;101115.05;3394947;85;34856;-78
2022/08/30 12:26:40;;;;;;;3.42;0.90;;;;;;;23.74;63.97;101111.06;3381702;85;98851;-78
2022/08/30 12:31:55;;;;;;;2.15;0.78;;;;;;;23.65;63.85;101108.14;3386046;85;34888;-78
2022/08/30 12:37:07;;;;;;;1.82;0.70;;;;;;;23.61;64.41;101107.48;3369251;85;98804;-78
2022/08/30 12:42:28;;;;;;;3.12;1.07;;;;;;;23.66;64.48;101094.25;3360724;86;34841;-78
2022/08/30 12:47:52;;;;;;;1.75;0.70;;;;;;;23.63;64.44;101083.92;3366100;85;98483;-78
2022/08/30 12:53:01;;;;;;;1.35;0.80;;;;;;;23.66;63.95;101079.42;3368005;85;34910;-78
2022/08/30 12:58:08;;;;;;;2.98;0.60;;;;;;;23.76;64.33;101076.26;3374631;85;98618;-78
2022/08/30 13:03:35;;;;;;;3.00;0.80;;;;;;;23.79;63.61;101071.15;3373822;85;35459;-79
2022/08/30 13:08:44;;;;;;;2.50;0.85;;;;;;;23.82;63.93;101075.86;3366140;85;98711;-79
2022/08/30 13:13:52;;;;;;;3.20;0.93;;;;;;;23.99;63.41;101067.50;3363991;85;35956;-79
2022/08/30 13:19:25;;;;;;;1.57;0.70;;;;;;;24.25;62.89;101048.53;3311035;86;99025;-78
2022/08/30 13:24:28;;;;;;;2.25;1.00;;;;;;;24.31;62.56;101048.88;3321072;86;35874;-79
2022/08/30 13:29:30;;;;;;;3.12;0.88;;;;;;;24.57;62.63;101033.47;3321722;86;98723;-78
2022/08/30 13:34:34;;;;;;;2.37;1.05;;;;;;;24.67;62.21;101039.97;3322238;86;35325;-78
2022/08/30 13:39:35;;;;;;;1.70;0.80;;;;;;;24.73;61.62;101045.97;3305917;87;98570;-78
2022/08/30 13:44:36;;;;;;;3.27;0.80;;;;;;;24.79;61.84;101044.13;3314574;87;34927;-78
2022/08/30 13:49:38;;;;;;;2.65;0.60;;;;;;;25.06;61.88;101042.12;3315276;87;98398;-79
2022/08/30 13:54:39;;;;;;;2.00;0.80;;;;;;;25.33;60.72;101034.61;3313240;87;26456;-79
2022/08/30 13:59:40;;;;;;;1.45;0.50;;;;;;;25.30;59.91;101040.39;3320010;86;98388;-78
2022/08/30 14:04:41;;;;;;;4.55;0.60;;;;;;;25.37;59.81;101031.03;3314717;86;34837;-78
2022/08/30 14:09:42;;;;;;;2.70;1.12;;;;;;;25.52;60.18;101028.42;3301160;87;98521;-78
2022/08/30 14:14:43;;;;;;;3.30;0.90;;;;;;;25.47;58.95;101023.39;3314622;87;34932;-77
2022/08/30 14:19:46;;;;;;;1.15;0.70;;;;;;;25.51;59.19;101019.81;3316125;86;98303;-78
2022/08/30 14:24:47;;;;;;;3.83;0.85;;;;;;;25.64;58.87;101020.47;3314403;87;34868;-78
2022/08/30 14:29:49;;;;;;;3.22;0.70;;;;;;;25.54;56.94;101015.44;3305406;87;98432;-78
2022/08/30 14:34:50;;;;;;;1.95;0.60;;;;;;;25.44;57.50;101011.02;3315485;87;34963;-78
2022/08/30 14:39:51;;;;;;;1.15;0.72;;;;;;;25.53;57.58;101010.25;3311341;87;98800;-78
2022/08/30 14:44:53;;;;;;;2.58;0.60;;;;;;;25.56;56.73;101007.93;3318762;86;43068;-78
2022/08/30 14:49:57;;;;;;;3.08;0.88;;;;;;;25.53;56.89;101008.23;3318093;86;98314;-78
2022/08/30 14:54:59;;;;;;;1.65;0.62;;;;;;;25.58;57.15;101006.83;3316325;86;26049;-78
2022/08/30 15:00:00;;;;;;;2.72;0.80;;;;;;;25.53;56.81;101004.62;3319464;87;98526;-78
2022/08/30 15:05:03;;;;;;;2.30;0.85;;;;;;;25.44;57.23;100996.16;3366850;85;35106;-78
2022/08/30 15:10:06;;;;;;;1.52;0.68;;;;;;;25.43;56.63;100991.73;3359324;85;98836;-78
2022/08/30 15:15:09;;;;;;;1.87;0.82;;;;;;;25.42;56.98;100998.63;3381700;84;35572;-78
2022/08/30 15:20:10;;;;;;;1.57;0.60;;;;;;;25.32;56.81;100989.98;3375271;85;98497;-78
2022/08/30 15:25:12;;;;;;;1.72;0.70;;;;;;;25.16;56.71;100991.60;3394825;85;35972;-78
2022/08/30 15:30:14;;;;;;;1.10;0.60;;;;;;;25.01;57.45;100992.79;3393192;85;98740;-78
2022/08/30 15:35:15;;;;;;;1.85;0.78;;;;;;;24.84;57.33;100992.86;3396299;85;26115;-78
2022/08/30 15:40:16;;;;;;;1.55;0.78;;;;;;;24.75;57.57;100988.57;3393276;85;98376;-78
2022/08/30 15:45:17;;;;;;;3.33;0.72;;;;;;;24.58;57.91;100989.27;3373445;85;46081;-78
2022/08/30 15:50:18;;;;;;;2.17;1.10;;;;;;;24.44;57.85;100991.15;3390882;85;98537;-78
2022/08/30 15:55:19;;;;;;;2.45;0.72;;;;;;;24.26;57.96;100986.80;3398879;86;35429;-78
2022/08/30 16:00:21;;;;;;;1.80;1.05;;;;;;;24.13;58.08;100983.27;3384730;85;98832;-78
2022/08/30 16:05:22;;;;;;;4.08;1.20;;;;;;;24.02;58.51;100976.59;3397710;85;34799;-78
2022/08/30 16:10:23;;;;;;;3.83;0.90;;;;;;;23.92;58.80;100975.57;3392463;85;98662;-78
2022/08/30 16:15:25;;;;;;;6.67;1.00;;;;;;;23.74;59.26;100971.92;3395394;85;34890;-77
2022/08/30 16:20:26;;;;;;;1.80;0.90;;;;;;;23.61;59.66;100983.03;3364829;84;98531;-78
2022/08/30 16:25:27;;;;;;;2.12;1.00;;;;;;;23.39;59.86;100971.72;3362847;86;34977;-78
2022/08/30 16:30:29;;;;;;;2.77;1.20;;;;;;;23.20;60.24;100973.33;3391762;85;98603;-78
2022/08/30 16:35:30;;;;;;;5.08;0.90;;;;;;;23.00;60.46;100976.33;3404876;84;34896;-77
2022/08/30 16:40:31;;;;;;;3.90;1.27;;;;;;;22.70;60.79;100971.25;3395801;85;98409;-78
2022/08/30 16:45:32;;;;;;;4.45;1.12;;;;;;;22.61;61.39;100971.75;3414237;85;35198;-77
2022/08/30 16:50:41;;;;;;;5.72;1.22;;;;;;;22.55;61.99;100976.34;3414051;84;98326;-78
2022/08/30 16:55:42;;;;;;;3.42;1.55;;;;;;;22.42;62.44;100973.47;3411487;84;26459;-78
2022/08/30 17:00:48;;;;;;;3.47;1.10;;;;;;;22.29;62.88;100975.42;3391967;84;98385;-78
2022/08/30 17:05:50;;;;;;;4.33;1.32;;;;;;;22.13;63.22;100978.91;3385586;85;42346;-78
2022/08/30 17:10:51;;;;;;;3.35;1.45;;;;;;;21.97;63.79;100978.94;3357318;85;98578;-77
2022/08/30 17:15:53;;;;;;;3.20;1.30;;;;;;;21.76;64.25;100975.29;3413965;84;35153;-77
2022/08/30 17:20:54;;;;;;;5.60;2.05;;;;;;;21.62;64.71;100977.81;3427023;84;99032;-78
2022/08/30 17:25:55;;;;;;;6.55;1.62;;;;;;;21.48;65.30;100982.98;3432982;84;34736;-78
2022/08/30 17:30:57;;;;;;;5.30;1.60;;;;;;;21.32;65.81;100980.97;3425776;84;98563;-78
2022/08/30 17:35:58;;;;;;;2.72;1.45;;;;;;;21.17;66.23;100982.52;3432422;83;99179;-78
2022/08/30 17:41:05;;;;;;;2.42;1.05;;;;;;;20.99;66.63;100982.75;3442334;84;34848;-78
2022/08/30 17:46:13;;;;;;;2.15;1.10;;;;;;;20.83;66.97;100985.48;3434583;83;98823;-78
2022/08/30 17:51:14;;;;;;;4.53;1.57;;;;;;;20.65;67.29;100992.08;3422906;84;34849;-78
2022/08/30 17:56:15;;;;;;;4.47;1.83;;;;;;;20.49;67.74;100994.17;3419229;84;98447;-78
2022/08/30 18:01:18;;;;;;;5.00;1.70;;;;;;;20.34;68.35;101002.69;3431301;84;34826;-77
2022/08/30 18:06:19;;;;;;;4.40;1.50;;;;;;;20.18;68.44;101004.59;3421883;84;98519;-77
2022/08/30 18:11:20;;;;;;;8.45;1.95;;;;;;;20.02;69.08;101011.45;3439020;84;34936;-78
2022/08/30 18:16:21;;;;;;;3.77;1.57;;;;;;;19.88;69.59;101025.66;3424416;84;98550;-78
2022/08/30 18:21:22;;;;;;;5.15;1.62;;;;;;;19.72;69.88;101026.95;3443921;84;34878;-79
2022/08/30 18:26:23;;;;;;;6.60;2.33;;;;;;;19.55;70.40;101029.41;3409470;84;98888;-78
2022/08/30 18:31:25;;;;;;;6.30;2.62;;;;;;;19.42;71.08;101040.98;3432986;84;46958;-79
2022/08/30 18:36:29;;;;;;;7.25;3.05;;;;;;;19.29;71.56;101042.17;3420974;84;98770;-79
2022/08/30 18:41:30;;;;;;;8.60;3.05;;;;;;;19.17;72.01;101041.91;3437070;84;34827;-78
2022/08/30 18:46:34;;;;;;;6.35;2.00;;;;;;;19.05;72.41;101050.86;3436222;84;98467;-79
2022/08/30 18:51:39;;;;;;;5.65;1.92;;;;;;;18.94;72.95;101050.21;3441153;84;35553;-79
2022/08/30 18:56:39;;;;;;;5.28;1.80;;;;;;;18.81;73.15;101042.99;3431910;83;98603;-79
2022/08/30 19:01:41;;;;;;;5.92;1.98;;;;;;;18.69;73.44;101051.14;3434753;84;34734;-86
2022/08/30 19:06:43;;;;;;;5.47;1.80;;;;;;;18.55;73.66;101052.69;3429171;84;98645;-86
2022/08/30 19:11:44;;;;;;;4.22;1.60;;;;;;;18.43;74.32;101058.80;3436891;83;72252;-86
2022/08/30 19:16:45;;;;;;;4.05;1.50;;;;;;;18.31;74.53;101053.73;3414681;84;98790;-86
2022/08/30 19:21:47;;;;;;;7.42;1.98;;;;;;;18.21;75.10;101054.01;3409691;84;34938;-86
2022/08/30 19:26:48;;;;;;;7.67;1.98;;;;;;;18.12;75.29;101052.91;3409313;85;98810;-86
2022/08/30 19:31:50;;;;;;;5.42;1.60;;;;;;;18.03;75.69;101063.77;3407869;84;33671;-87
2022/08/30 19:36:52;;;;;;;7.00;2.37;;;;;;;17.91;75.32;101063.66;3398871;84;98525;-86
2022/08/30 19:41:53;;;;;;;3.77;2.17;;;;;;;17.80;75.60;101079.66;3400641;84;36522;-85
2022/08/30 19:46:54;;;;;;;5.50;1.80;;;;;;;17.68;75.50;101080.75;3408669;84;98604;-86
2022/08/30 19:51:56;;;;;;;4.65;1.65;;;;;;;17.49;75.21;101083.46;3414694;84;32982;-86
2022/08/30 19:56:57;;;;;;;4.33;1.50;;;;;;;17.37;75.47;101081.13;3384773;85;99123;-85
2022/08/30 20:01:59;;;;;;;4.05;1.60;;;;;;;17.25;75.63;101086.36;3412955;84;35682;-86
2022/08/30 20:07:00;;;;;;;3.05;1.20;;;;;;;17.13;75.76;101085.44;3412426;84;98690;-87
2022/08/30 20:12:02;;;;;;;3.62;1.32;;;;;;;17.05;76.59;101084.69;3411822;84;33095;-87
2022/08/30 20:17:03;;;;;;;7.15;1.60;;;;;;;16.99;76.71;101088.28;3385419;85;98891;-85
2022/08/30 20:22:06;;;;;;;3.10;1.13;;;;;;;16.88;77.11;101079.99;3375784;85;34631;-86
2022/08/30 20:27:07;;;;;;;3.05;1.22;;;;;;;16.83;77.66;101083.77;3361450;85;99039;-86
2022/08/30 20:32:08;;;;;;;3.33;1.27;;;;;;;16.82;78.18;101080.81;3377207;85;35148;-85
2022/08/30 20:37:09;;;;;;;3.57;1.20;;;;;;;16.78;78.24;101083.61;3372001;85;99124;-86
2022/08/30 20:42:11;;;;;;;4.15;1.10;;;;;;;16.73;78.35;101074.91;3374542;85;33335;-86
2022/08/30 20:47:13;;;;;;;2.47;1.30;;;;;;;16.70;78.67;101083.45;3360837;85;98522;-86
2022/08/30 20:52:15;;;;;;;2.17;1.00;;;;;;;16.64;78.56;101079.50;3367595;85;34954;-86
2022/08/30 20:57:16;;;;;;;4.15;1.20;;;;;;;16.59;79.07;101087.45;3363182;85;98824;-85
2022/08/30 21:02:17;;;;;;;2.90;1.07;;;;;;;16.54;79.19;101087.27;3368163;85;32044;-86
2022/08/30 21:07:18;;;;;;;2.80;1.17;;;;;;;16.51;79.51;101096.39;3350457;86;98967;-86
2022/08/30 21:12:20;;;;;;;3.90;1.17;;;;;;;16.42;79.59;101093.26;3366555;86;32004;-85
2022/08/30 21:17:21;;;;;;;2.22;1.00;;;;;;;16.36;79.87;101099.58;3375373;85;98675;-86
2022/08/30 21:22:23;;;;;;;2.43;0.90;;;;;;;16.29;79.90;101099.60;3394279;86;31075;-85
2022/08/30 21:27:24;;;;;;;5.15;1.00;;;;;;;16.23;80.26;101108.92;3380955;85;98981;-86
2022/08/30 21:32:25;;;;;;;2.85;1.10;;;;;;;16.23;80.73;101110.89;3394925;85;33951;-86
2022/08/30 21:37:27;;;;;;;4.17;1.17;;;;;;;16.17;80.66;101118.04;3385222;85;98959;-85
2022/08/30 21:42:27;;;;;;;2.23;1.10;;;;;;;16.13;81.00;101121.44;3380058;85;31052;-85
2022/08/30 21:47:29;;;;;;;4.73;1.80;;;;;;;16.06;81.06;101113.89;3376567;85;98494;-88
2022/08/30 21:52:30;;;;;;;3.30;1.00;;;;;;;16.02;81.28;101116.48;3378657;85;30324;-86
2022/08/30 21:57:31;;;;;;;4.57;1.40;;;;;;;15.99;81.42;101111.13;3386381;84;98942;-86
2022/08/30 22:02:33;;;;;;;2.50;1.07;;;;;;;15.97;81.52;101119.04;3372590;86;29497;-86
2022/08/30 22:07:36;;;;;;;3.45;1.07;;;;;;;15.92;81.62;101121.44;3382131;84;98859;-86
2022/08/30 22:12:38;;;;;;;4.20;1.50;;;;;;;15.89;81.93;101125.80;3390518;85;35538;-86
2022/08/30 22:17:39;;;;;;;5.58;1.52;;;;;;;15.90;82.18;101128.77;3407209;84;99168;-86
2022/08/30 22:22:40;;;;;;;2.97;1.37;;;;;;;15.88;82.42;101118.66;3436302;84;46276;-86
2022/08/30 22:27:41;;;;;;;3.87;1.50;;;;;;;15.88;82.51;101117.85;3420555;85;98948;-86
2022/08/30 22:32:42;;;;;;;2.97;1.27;;;;;;;15.80;82.69;101117.66;3431827;85;29857;-87
2022/08/30 22:37:43;;;;;;;4.83;1.50;;;;;;;15.79;82.62;101121.02;3436420;84;99139;-86
2022/08/30 22:42:44;;;;;;;2.92;1.37;;;;;;;15.73;82.81;101114.28;3434424;84;32619;-86
2022/08/30 22:47:46;;;;;;;5.43;1.13;;;;;;;15.69;83.13;101116.86;3408766;84;98913;-86
2022/08/30 22:52:48;;;;;;;4.50;1.50;;;;;;;15.67;83.39;101123.38;3432028;84;79784;-85
2022/08/30 22:57:49;;;;;;;3.85;1.50;;;;;;;15.62;83.38;101124.58;3425908;84;98872;-86
2022/08/30 23:02:52;;;;;;;4.58;1.50;;;;;;;15.57;83.64;101110.28;3412178;83;60645;-88
2022/08/30 23:07:53;;;;;;;3.42;1.70;;;;;;;15.55;83.75;101129.31;3413052;84;99149;-87
2022/08/30 23:12:57;;;;;;;4.05;1.50;;;;;;;15.47;84.05;101139.59;3429184;84;35059;-87
2022/08/30 23:17:58;;;;;;;4.20;1.60;;;;;;;15.44;84.39;101124.33;3428507;83;99082;-87
